Terminal Aerodrome Forecast
Issued by NWS Milwaukee/Sullivan, WI

Home | Current Version | Previous Version | Text Only | Print | Product List | Glossary On
Versions: 1 2 3 4 5 6 7 8 9 10 11 12 13 14 15 16 17 18 19 20 21 22 23 24 25 26 27 28 29 30 31 32 33 34 35 36
000
FTUS43 KMKX 281945 AAB
TAFMKE
TAF AMD
KMKE 281945Z 2820/2924 02015G21KT P6SM OVC011
     FM282200 03009KT P6SM VCTS BKN025CB
     FM290300 03009KT P6SM BKN080
     FM291000 06007KT P6SM BKN050
     FM292300 03011KT P6SM BKN090=

USA.gov is the U.S. government's official web portal to all federal, state and local government web resources and services.